Audubon Park, New Jersey
Current Conditions -  °F | °C
As of 6:54 PM on Sunday 25 Jan 2015 (Local Time) from KPHL Reporting Station
Overcast Overcast  
Wind Chill: 39°   Ceiling: 6000
Heat Index: 42°   Visibility: 10mi
Dew Point: 32°   Wind: 5mph
Humidity: 67%   Direction: 350°N
Pressure: 29.9"   Gusts: NA
Location:  39.891°N, 75.0738°W
Report Text: KPHL 252354Z 35004KT 10SM SCT043 BKN060 OVC100 06/00 A2990 RMK AO2 SLP124 T00560000 10078 20056 51025
Loading
Personal Weather Stations






























Interactive Weather Map New forecast layout! Learn more

10-Day Weather Forecast

Advertisements
Track Severe Weather on mobile